sensor_id;sensor_type;location;lat;lon;timestamp;P1;durP1;ratioP1;P2;durP2;ratioP2
14776;SDS011;7480;43.124;25.686;2022-09-09T00:01:20;1.90;;;1.70;;
14776;SDS011;7480;43.124;25.686;2022-09-09T00:03:54;4.90;;;1.93;;
14776;SDS011;7480;43.124;25.686;2022-09-09T00:06:32;3.40;;;2.40;;
14776;SDS011;7480;43.124;25.686;2022-09-09T00:11:42;2.93;;;1.97;;
14776;SDS011;7480;43.124;25.686;2022-09-09T00:16:55;6.13;;;2.30;;
14776;SDS011;7480;43.124;25.686;2022-09-09T00:19:32;4.22;;;2.15;;
14776;SDS011;7480;43.124;25.686;2022-09-09T00:24:34;3.00;;;1.87;;
14776;SDS011;7480;43.124;25.686;2022-09-09T00:27:07;3.47;;;2.00;;
14776;SDS011;7480;43.124;25.686;2022-09-09T00:29:36;2.03;;;1.83;;
14776;SDS011;7480;43.124;25.686;2022-09-09T00:32:14;2.77;;;1.90;;
14776;SDS011;7480;43.124;25.686;2022-09-09T00:34:49;2.47;;;1.80;;
14776;SDS011;7480;43.124;25.686;2022-09-09T00:37:18;2.10;;;1.70;;
14776;SDS011;7480;43.124;25.686;2022-09-09T00:39:45;2.43;;;2.00;;
14776;SDS011;7480;43.124;25.686;2022-09-09T00:42:23;2.07;;;1.83;;
14776;SDS011;7480;43.124;25.686;2022-09-09T00:47:39;2.07;;;1.83;;
14776;SDS011;7480;43.124;25.686;2022-09-09T00:55:24;3.80;;;1.97;;
14776;SDS011;7480;43.124;25.686;2022-09-09T00:57:55;2.37;;;2.00;;
14776;SDS011;7480;43.124;25.686;2022-09-09T01:00:26;2.47;;;1.63;;
14776;SDS011;7480;43.124;25.686;2022-09-09T01:05:44;3.10;;;2.00;;
14776;SDS011;7480;43.124;25.686;2022-09-09T01:10:59;5.10;;;2.13;;
14776;SDS011;7480;43.124;25.686;2022-09-09T01:13:28;3.00;;;1.93;;
14776;SDS011;7480;43.124;25.686;2022-09-09T01:16:01;3.27;;;1.80;;
14776;SDS011;7480;43.124;25.686;2022-09-09T01:18:29;2.67;;;1.93;;
14776;SDS011;7480;43.124;25.686;2022-09-09T01:28:29;4.83;;;2.13;;
14776;SDS011;7480;43.124;25.686;2022-09-09T01:30:57;2.40;;;1.97;;
14776;SDS011;7480;43.124;25.686;2022-09-09T01:33:24;4.30;;;2.33;;
14776;SDS011;7480;43.124;25.686;2022-09-09T01:38:21;3.67;;;2.10;;
14776;SDS011;7480;43.124;25.686;2022-09-09T01:40:47;2.47;;;2.27;;
14776;SDS011;7480;43.124;25.686;2022-09-09T01:43:15;2.97;;;2.30;;
14776;SDS011;7480;43.124;25.686;2022-09-09T01:45:41;4.27;;;2.40;;
14776;SDS011;7480;43.124;25.686;2022-09-09T01:48:09;7.40;;;2.57;;
14776;SDS011;7480;43.124;25.686;2022-09-09T01:50:35;3.70;;;2.87;;
14776;SDS011;7480;43.124;25.686;2022-09-09T01:53:01;3.63;;;2.53;;
14776;SDS011;7480;43.124;25.686;2022-09-09T01:55:33;6.20;;;2.23;;
14776;SDS011;7480;43.124;25.686;2022-09-09T02:00:31;5.33;;;2.67;;
14776;SDS011;7480;43.124;25.686;2022-09-09T02:03:06;3.87;;;2.50;;
14776;SDS011;7480;43.124;25.686;2022-09-09T02:10:45;2.50;;;2.23;;
14776;SDS011;7480;43.124;25.686;2022-09-09T02:13:13;2.70;;;2.10;;
14776;SDS011;7480;43.124;25.686;2022-09-09T02:18:10;3.37;;;2.33;;
14776;SDS011;7480;43.124;25.686;2022-09-09T02:20:38;4.53;;;2.33;;
14776;SDS011;7480;43.124;25.686;2022-09-09T02:23:05;2.90;;;2.60;;
14776;SDS011;7480;43.124;25.686;2022-09-09T02:25:34;4.67;;;2.33;;
14776;SDS011;7480;43.124;25.686;2022-09-09T02:28:02;4.13;;;2.80;;
14776;SDS011;7480;43.124;25.686;2022-09-09T02:30:30;3.17;;;2.47;;
14776;SDS011;7480;43.124;25.686;2022-09-09T02:32:58;3.07;;;2.77;;
14776;SDS011;7480;43.124;25.686;2022-09-09T02:35:25;2.57;;;2.37;;
14776;SDS011;7480;43.124;25.686;2022-09-09T02:37:53;2.78;;;2.40;;
14776;SDS011;7480;43.124;25.686;2022-09-09T02:40:21;4.60;;;2.70;;
14776;SDS011;7480;43.124;25.686;2022-09-09T02:42:48;2.83;;;2.57;;
14776;SDS011;7480;43.124;25.686;2022-09-09T02:45:17;3.30;;;2.77;;
14776;SDS011;7480;43.124;25.686;2022-09-09T02:47:51;1.97;;;1.80;;
14776;SDS011;7480;43.124;25.686;2022-09-09T02:50:33;2.53;;;2.33;;
14776;SDS011;7480;43.124;25.686;2022-09-09T02:55:50;2.77;;;2.10;;
14776;SDS011;7480;43.124;25.686;2022-09-09T02:58:21;2.50;;;2.20;;
14776;SDS011;7480;43.124;25.686;2022-09-09T03:00:48;2.70;;;2.20;;
14776;SDS011;7480;43.124;25.686;2022-09-09T03:03:15;3.37;;;2.20;;
14776;SDS011;7480;43.124;25.686;2022-09-09T03:05:43;4.20;;;3.60;;
14776;SDS011;7480;43.124;25.686;2022-09-09T03:08:09;3.87;;;3.10;;
14776;SDS011;7480;43.124;25.686;2022-09-09T03:10:36;2.70;;;2.50;;
14776;SDS011;7480;43.124;25.686;2022-09-09T03:13:03;3.07;;;2.40;;
14776;SDS011;7480;43.124;25.686;2022-09-09T03:15:32;3.67;;;2.50;;
14776;SDS011;7480;43.124;25.686;2022-09-09T03:17:59;2.57;;;2.30;;
14776;SDS011;7480;43.124;25.686;2022-09-09T03:20:26;6.87;;;2.70;;
14776;SDS011;7480;43.124;25.686;2022-09-09T03:22:53;4.07;;;2.70;;
14776;SDS011;7480;43.124;25.686;2022-09-09T03:25:20;4.43;;;2.70;;
14776;SDS011;7480;43.124;25.686;2022-09-09T03:27:49;9.07;;;4.10;;
14776;SDS011;7480;43.124;25.686;2022-09-09T03:30:16;4.33;;;2.97;;
14776;SDS011;7480;43.124;25.686;2022-09-09T03:32:42;6.23;;;3.60;;
14776;SDS011;7480;43.124;25.686;2022-09-09T03:35:14;5.20;;;2.83;;
14776;SDS011;7480;43.124;25.686;2022-09-09T03:37:41;13.67;;;4.00;;
14776;SDS011;7480;43.124;25.686;2022-09-09T03:40:08;11.97;;;4.50;;
14776;SDS011;7480;43.124;25.686;2022-09-09T03:42:36;4.27;;;3.03;;
14776;SDS011;7480;43.124;25.686;2022-09-09T03:45:04;9.23;;;4.17;;
14776;SDS011;7480;43.124;25.686;2022-09-09T03:47:31;4.87;;;3.17;;
14776;SDS011;7480;43.124;25.686;2022-09-09T03:49:57;9.33;;;3.43;;
14776;SDS011;7480;43.124;25.686;2022-09-09T03:52:24;4.07;;;3.17;;
14776;SDS011;7480;43.124;25.686;2022-09-09T03:54:52;3.73;;;2.97;;
14776;SDS011;7480;43.124;25.686;2022-09-09T03:57:19;6.10;;;3.07;;
14776;SDS011;7480;43.124;25.686;2022-09-09T03:59:46;5.37;;;3.03;;
14776;SDS011;7480;43.124;25.686;2022-09-09T04:02:12;5.87;;;3.90;;
14776;SDS011;7480;43.124;25.686;2022-09-09T04:04:39;7.10;;;3.60;;
14776;SDS011;7480;43.124;25.686;2022-09-09T04:07:05;4.13;;;2.97;;
14776;SDS011;7480;43.124;25.686;2022-09-09T04:09:35;7.07;;;3.67;;
14776;SDS011;7480;43.124;25.686;2022-09-09T04:12:01;3.17;;;2.83;;
14776;SDS011;7480;43.124;25.686;2022-09-09T04:14:28;4.77;;;2.40;;
14776;SDS011;7480;43.124;25.686;2022-09-09T04:16:55;5.27;;;2.90;;
14776;SDS011;7480;43.124;25.686;2022-09-09T04:19:24;7.50;;;3.00;;
14776;SDS011;7480;43.124;25.686;2022-09-09T04:21:51;3.20;;;2.87;;
14776;SDS011;7480;43.124;25.686;2022-09-09T04:24:17;4.87;;;3.17;;
14776;SDS011;7480;43.124;25.686;2022-09-09T04:26:45;4.87;;;2.83;;
14776;SDS011;7480;43.124;25.686;2022-09-09T04:29:11;3.33;;;2.97;;
14776;SDS011;7480;43.124;25.686;2022-09-09T04:31:38;5.23;;;3.47;;
14776;SDS011;7480;43.124;25.686;2022-09-09T04:34:08;5.03;;;3.20;;
14776;SDS011;7480;43.124;25.686;2022-09-09T04:36:35;6.33;;;3.30;;
14776;SDS011;7480;43.124;25.686;2022-09-09T04:39:02;2.93;;;2.43;;
14776;SDS011;7480;43.124;25.686;2022-09-09T04:41:28;6.00;;;3.03;;
14776;SDS011;7480;43.124;25.686;2022-09-09T04:43:56;5.00;;;3.10;;
14776;SDS011;7480;43.124;25.686;2022-09-09T04:46:22;6.07;;;4.50;;
14776;SDS011;7480;43.124;25.686;2022-09-09T04:48:49;4.17;;;3.00;;
14776;SDS011;7480;43.124;25.686;2022-09-09T04:51:16;6.03;;;2.97;;
14776;SDS011;7480;43.124;25.686;2022-09-09T04:53:42;4.33;;;3.43;;
14776;SDS011;7480;43.124;25.686;2022-09-09T04:56:13;5.83;;;4.00;;
14776;SDS011;7480;43.124;25.686;2022-09-09T04:58:40;5.07;;;2.97;;
14776;SDS011;7480;43.124;25.686;2022-09-09T05:01:11;3.87;;;2.70;;
14776;SDS011;7480;43.124;25.686;2022-09-09T05:03:38;4.97;;;3.30;;
14776;SDS011;7480;43.124;25.686;2022-09-09T05:06:08;9.93;;;3.17;;
14776;SDS011;7480;43.124;25.686;2022-09-09T05:08:38;10.77;;;4.00;;
14776;SDS011;7480;43.124;25.686;2022-09-09T05:13:44;4.77;;;3.50;;
14776;SDS011;7480;43.124;25.686;2022-09-09T05:16:11;3.33;;;3.03;;
14776;SDS011;7480;43.124;25.686;2022-09-09T05:18:38;3.30;;;3.00;;
14776;SDS011;7480;43.124;25.686;2022-09-09T05:21:05;5.13;;;3.57;;
14776;SDS011;7480;43.124;25.686;2022-09-09T05:23:33;4.57;;;3.03;;
14776;SDS011;7480;43.124;25.686;2022-09-09T05:26:00;3.77;;;3.20;;
14776;SDS011;7480;43.124;25.686;2022-09-09T05:28:26;4.60;;;4.10;;
14776;SDS011;7480;43.124;25.686;2022-09-09T05:31:00;6.07;;;4.37;;
14776;SDS011;7480;43.124;25.686;2022-09-09T05:33:30;7.67;;;3.93;;
14776;SDS011;7480;43.124;25.686;2022-09-09T05:35:57;4.40;;;3.47;;
14776;SDS011;7480;43.124;25.686;2022-09-09T05:38:24;5.67;;;3.33;;
14776;SDS011;7480;43.124;25.686;2022-09-09T05:40:54;4.75;;;2.50;;
14776;SDS011;7480;43.124;25.686;2022-09-09T05:43:21;3.60;;;3.20;;
14776;SDS011;7480;43.124;25.686;2022-09-09T05:45:48;3.75;;;2.72;;
14776;SDS011;7480;43.124;25.686;2022-09-09T05:48:14;3.20;;;2.90;;
14776;SDS011;7480;43.124;25.686;2022-09-09T05:50:42;3.30;;;2.58;;
14776;SDS011;7480;43.124;25.686;2022-09-09T05:53:09;3.90;;;2.15;;
14776;SDS011;7480;43.124;25.686;2022-09-09T05:55:36;7.20;;;2.72;;
14776;SDS011;7480;43.124;25.686;2022-09-09T05:58:03;2.40;;;2.20;;
14776;SDS011;7480;43.124;25.686;2022-09-09T06:00:30;3.17;;;1.98;;
14776;SDS011;7480;43.124;25.686;2022-09-09T06:02:58;8.35;;;2.40;;
14776;SDS011;7480;43.124;25.686;2022-09-09T06:05:25;3.78;;;2.38;;
14776;SDS011;7480;43.124;25.686;2022-09-09T06:07:53;2.72;;;2.10;;
14776;SDS011;7480;43.124;25.686;2022-09-09T06:10:20;4.85;;;2.10;;
14776;SDS011;7480;43.124;25.686;2022-09-09T06:12:46;2.47;;;1.90;;
14776;SDS011;7480;43.124;25.686;2022-09-09T06:15:13;4.53;;;2.38;;
14776;SDS011;7480;43.124;25.686;2022-09-09T06:17:39;2.83;;;2.13;;
14776;SDS011;7480;43.124;25.686;2022-09-09T06:20:07;2.15;;;1.77;;
14776;SDS011;7480;43.124;25.686;2022-09-09T06:22:35;5.97;;;2.00;;
14776;SDS011;7480;43.124;25.686;2022-09-09T06:25:01;2.53;;;2.20;;
14776;SDS011;7480;43.124;25.686;2022-09-09T06:27:28;2.67;;;2.08;;
14776;SDS011;7480;43.124;25.686;2022-09-09T06:29:55;2.50;;;2.30;;
14776;SDS011;7480;43.124;25.686;2022-09-09T06:32:21;4.13;;;2.33;;
14776;SDS011;7480;43.124;25.686;2022-09-09T06:34:47;3.03;;;2.30;;
14776;SDS011;7480;43.124;25.686;2022-09-09T06:37:15;3.70;;;1.95;;
14776;SDS011;7480;43.124;25.686;2022-09-09T06:39:41;2.83;;;2.35;;
14776;SDS011;7480;43.124;25.686;2022-09-09T06:42:08;2.30;;;1.98;;
14776;SDS011;7480;43.124;25.686;2022-09-09T06:44:35;3.33;;;2.35;;
14776;SDS011;7480;43.124;25.686;2022-09-09T06:47:02;3.70;;;1.92;;
14776;SDS011;7480;43.124;25.686;2022-09-09T06:49:29;3.38;;;1.95;;
14776;SDS011;7480;43.124;25.686;2022-09-09T06:51:56;3.33;;;2.20;;
14776;SDS011;7480;43.124;25.686;2022-09-09T06:54:22;2.63;;;2.17;;
14776;SDS011;7480;43.124;25.686;2022-09-09T06:56:49;2.35;;;1.90;;
14776;SDS011;7480;43.124;25.686;2022-09-09T06:59:16;5.05;;;2.13;;
14776;SDS011;7480;43.124;25.686;2022-09-09T07:01:42;2.03;;;1.73;;
14776;SDS011;7480;43.124;25.686;2022-09-09T07:04:21;4.95;;;1.92;;
14776;SDS011;7480;43.124;25.686;2022-09-09T07:06:48;4.82;;;1.70;;
14776;SDS011;7480;43.124;25.686;2022-09-09T07:09:14;3.83;;;2.00;;
14776;SDS011;7480;43.124;25.686;2022-09-09T07:11:42;2.72;;;2.05;;
14776;SDS011;7480;43.124;25.686;2022-09-09T07:14:09;2.72;;;2.00;;
14776;SDS011;7480;43.124;25.686;2022-09-09T07:16:40;2.83;;;1.73;;
14776;SDS011;7480;43.124;25.686;2022-09-09T07:19:08;2.20;;;2.00;;
14776;SDS011;7480;43.124;25.686;2022-09-09T07:21:34;1.80;;;1.70;;
14776;SDS011;7480;43.124;25.686;2022-09-09T07:24:01;2.00;;;1.70;;
14776;SDS011;7480;43.124;25.686;2022-09-09T07:26:29;1.70;;;1.60;;
14776;SDS011;7480;43.124;25.686;2022-09-09T07:28:56;2.17;;;1.98;;
14776;SDS011;7480;43.124;25.686;2022-09-09T07:31:27;1.90;;;1.70;;
14776;SDS011;7480;43.124;25.686;2022-09-09T07:33:56;2.97;;;2.10;;
14776;SDS011;7480;43.124;25.686;2022-09-09T07:36:27;2.33;;;1.95;;
14776;SDS011;7480;43.124;25.686;2022-09-09T07:38:59;2.10;;;1.90;;
14776;SDS011;7480;43.124;25.686;2022-09-09T07:41:27;2.67;;;1.95;;
14776;SDS011;7480;43.124;25.686;2022-09-09T07:43:54;1.80;;;1.67;;
14776;SDS011;7480;43.124;25.686;2022-09-09T07:46:21;2.72;;;2.03;;
14776;SDS011;7480;43.124;25.686;2022-09-09T07:48:52;2.30;;;1.60;;
14776;SDS011;7480;43.124;25.686;2022-09-09T07:51:20;2.45;;;2.00;;
14776;SDS011;7480;43.124;25.686;2022-09-09T07:53:50;1.85;;;1.60;;
14776;SDS011;7480;43.124;25.686;2022-09-09T07:56:18;3.60;;;2.20;;
14776;SDS011;7480;43.124;25.686;2022-09-09T07:58:45;1.98;;;1.65;;
14776;SDS011;7480;43.124;25.686;2022-09-09T08:01:14;2.83;;;2.13;;
14776;SDS011;7480;43.124;25.686;2022-09-09T08:03:42;2.15;;;1.85;;
14776;SDS011;7480;43.124;25.686;2022-09-09T08:06:09;2.08;;;1.80;;
14776;SDS011;7480;43.124;25.686;2022-09-09T08:08:35;3.25;;;1.85;;
14776;SDS011;7480;43.124;25.686;2022-09-09T08:11:03;2.03;;;1.83;;
14776;SDS011;7480;43.124;25.686;2022-09-09T08:13:29;1.83;;;1.73;;
14776;SDS011;7480;43.124;25.686;2022-09-09T08:16:04;2.33;;;2.13;;
14776;SDS011;7480;43.124;25.686;2022-09-09T08:18:32;2.55;;;2.03;;
14776;SDS011;7480;43.124;25.686;2022-09-09T08:21:04;2.10;;;1.70;;
14776;SDS011;7480;43.124;25.686;2022-09-09T08:23:31;2.63;;;2.22;;
14776;SDS011;7480;43.124;25.686;2022-09-09T08:26:32;2.42;;;1.75;;
14776;SDS011;7480;43.124;25.686;2022-09-09T08:28:51;2.38;;;2.17;;
14776;SDS011;7480;43.124;25.686;2022-09-09T08:31:28;2.35;;;2.15;;
14776;SDS011;7480;43.124;25.686;2022-09-09T08:33:55;2.13;;;1.70;;
14776;SDS011;7480;43.124;25.686;2022-09-09T08:36:28;1.94;;;1.80;;
14776;SDS011;7480;43.124;25.686;2022-09-09T08:38:56;3.50;;;2.03;;
14776;SDS011;7480;43.124;25.686;2022-09-09T08:44:39;2.88;;;1.90;;
14776;SDS011;7480;43.124;25.686;2022-09-09T08:52:13;4.72;;;1.90;;
14776;SDS011;7480;43.124;25.686;2022-09-09T08:54:42;4.15;;;2.08;;
14776;SDS011;7480;43.124;25.686;2022-09-09T08:57:28;3.83;;;2.03;;
14776;SDS011;7480;43.124;25.686;2022-09-09T08:59:55;3.30;;;2.13;;
14776;SDS011;7480;43.124;25.686;2022-09-09T09:02:32;2.38;;;2.08;;
14776;SDS011;7480;43.124;25.686;2022-09-09T09:13:02;1.65;;;1.50;;
14776;SDS011;7480;43.124;25.686;2022-09-09T09:15:38;2.30;;;2.10;;
14776;SDS011;7480;43.124;25.686;2022-09-09T09:18:05;2.28;;;1.60;;
14776;SDS011;7480;43.124;25.686;2022-09-09T09:20:40;1.75;;;1.65;;
14776;SDS011;7480;43.124;25.686;2022-09-09T09:23:10;2.13;;;1.90;;
14776;SDS011;7480;43.124;25.686;2022-09-09T09:25:41;1.90;;;1.75;;
14776;SDS011;7480;43.124;25.686;2022-09-09T09:28:13;2.28;;;1.83;;
14776;SDS011;7480;43.124;25.686;2022-09-09T09:30:49;2.75;;;1.73;;
14776;SDS011;7480;43.124;25.686;2022-09-09T09:33:26;2.00;;;1.80;;
14776;SDS011;7480;43.124;25.686;2022-09-09T09:35:54;3.55;;;2.15;;
14776;SDS011;7480;43.124;25.686;2022-09-09T09:38:22;4.05;;;2.40;;
14776;SDS011;7480;43.124;25.686;2022-09-09T09:41:09;2.30;;;2.10;;
14776;SDS011;7480;43.124;25.686;2022-09-09T09:43:36;3.22;;;2.10;;
14776;SDS011;7480;43.124;25.686;2022-09-09T09:46:04;2.40;;;2.20;;
14776;SDS011;7480;43.124;25.686;2022-09-09T09:48:43;2.67;;;1.90;;
14776;SDS011;7480;43.124;25.686;2022-09-09T09:51:10;1.90;;;1.80;;
14776;SDS011;7480;43.124;25.686;2022-09-09T09:53:38;3.13;;;2.08;;
14776;SDS011;7480;43.124;25.686;2022-09-09T09:56:10;2.63;;;1.77;;
14776;SDS011;7480;43.124;25.686;2022-09-09T10:01:04;2.13;;;1.88;;
14776;SDS011;7480;43.124;25.686;2022-09-09T10:03:32;3.17;;;2.00;;
14776;SDS011;7480;43.124;25.686;2022-09-09T10:06:03;3.38;;;2.25;;
14776;SDS011;7480;43.124;25.686;2022-09-09T10:08:32;4.20;;;2.50;;
14776;SDS011;7480;43.124;25.686;2022-09-09T10:18:39;2.78;;;2.08;;
14776;SDS011;7480;43.124;25.686;2022-09-09T10:29:17;2.60;;;2.25;;
14776;SDS011;7480;43.124;25.686;2022-09-09T10:34:53;2.45;;;1.70;;
14776;SDS011;7480;43.124;25.686;2022-09-09T10:37:27;3.28;;;2.00;;
14776;SDS011;7480;43.124;25.686;2022-09-09T10:40:01;5.10;;;2.28;;
14776;SDS011;7480;43.124;25.686;2022-09-09T10:42:30;2.67;;;2.03;;
14776;SDS011;7480;43.124;25.686;2022-09-09T10:55:33;2.05;;;1.85;;
14776;SDS011;7480;43.124;25.686;2022-09-09T10:58:02;3.72;;;2.33;;
14776;SDS011;7480;43.124;25.686;2022-09-09T11:00:44;3.85;;;2.10;;
14776;SDS011;7480;43.124;25.686;2022-09-09T11:03:15;2.25;;;1.80;;
14776;SDS011;7480;43.124;25.686;2022-09-09T11:06:06;3.03;;;2.03;;
14776;SDS011;7480;43.124;25.686;2022-09-09T11:08:32;3.35;;;2.20;;
14776;SDS011;7480;43.124;25.686;2022-09-09T11:11:04;2.92;;;1.85;;
14776;SDS011;7480;43.124;25.686;2022-09-09T11:18:39;2.55;;;2.15;;
14776;SDS011;7480;43.124;25.686;2022-09-09T11:21:07;3.15;;;2.22;;
14776;SDS011;7480;43.124;25.686;2022-09-09T11:23:52;2.45;;;1.80;;
14776;SDS011;7480;43.124;25.686;2022-09-09T11:26:24;3.75;;;1.80;;
14776;SDS011;7480;43.124;25.686;2022-09-09T11:32:01;2.22;;;1.58;;
14776;SDS011;7480;43.124;25.686;2022-09-09T11:40:00;3.00;;;1.65;;
14776;SDS011;7480;43.124;25.686;2022-09-09T11:42:34;2.30;;;2.00;;
14776;SDS011;7480;43.124;25.686;2022-09-09T11:47:53;2.55;;;2.00;;
14776;SDS011;7480;43.124;25.686;2022-09-09T11:52:49;2.17;;;1.98;;
14776;SDS011;7480;43.124;25.686;2022-09-09T11:57:59;2.67;;;2.00;;
14776;SDS011;7480;43.124;25.686;2022-09-09T12:02:59;2.17;;;1.98;;
14776;SDS011;7480;43.124;25.686;2022-09-09T12:05:35;3.72;;;2.35;;
14776;SDS011;7480;43.124;25.686;2022-09-09T12:08:02;3.22;;;1.88;;
14776;SDS011;7480;43.124;25.686;2022-09-09T12:10:30;3.20;;;2.33;;
14776;SDS011;7480;43.124;25.686;2022-09-09T12:13:14;2.92;;;2.08;;
14776;SDS011;7480;43.124;25.686;2022-09-09T12:15:50;2.17;;;1.98;;
14776;SDS011;7480;43.124;25.686;2022-09-09T12:18:25;2.30;;;1.88;;
14776;SDS011;7480;43.124;25.686;2022-09-09T12:20:54;2.45;;;1.80;;
14776;SDS011;7480;43.124;25.686;2022-09-09T12:23:26;4.25;;;1.88;;
14776;SDS011;7480;43.124;25.686;2022-09-09T12:28:28;3.83;;;2.20;;
14776;SDS011;7480;43.124;25.686;2022-09-09T12:33:33;3.45;;;1.95;;
14776;SDS011;7480;43.124;25.686;2022-09-09T12:36:00;2.58;;;2.15;;
14776;SDS011;7480;43.124;25.686;2022-09-09T12:38:32;2.75;;;2.22;;
14776;SDS011;7480;43.124;25.686;2022-09-09T12:40:59;2.83;;;2.15;;
14776;SDS011;7480;43.124;25.686;2022-09-09T12:43:27;2.72;;;2.05;;
14776;SDS011;7480;43.124;25.686;2022-09-09T12:45:55;3.30;;;1.98;;
14776;SDS011;7480;43.124;25.686;2022-09-09T12:48:28;3.42;;;2.35;;
14776;SDS011;7480;43.124;25.686;2022-09-09T12:50:57;6.28;;;2.33;;
14776;SDS011;7480;43.124;25.686;2022-09-09T12:53:27;2.78;;;1.95;;
14776;SDS011;7480;43.124;25.686;2022-09-09T12:55:59;3.33;;;2.13;;
14776;SDS011;7480;43.124;25.686;2022-09-09T12:58:26;5.30;;;1.98;;
14776;SDS011;7480;43.124;25.686;2022-09-09T13:00:55;2.75;;;2.10;;
14776;SDS011;7480;43.124;25.686;2022-09-09T13:03:25;5.30;;;2.13;;
14776;SDS011;7480;43.124;25.686;2022-09-09T13:05:52;2.38;;;2.10;;
14776;SDS011;7480;43.124;25.686;2022-09-09T13:08:19;3.55;;;2.20;;
14776;SDS011;7480;43.124;25.686;2022-09-09T13:10:57;3.97;;;2.10;;
14776;SDS011;7480;43.124;25.686;2022-09-09T13:13:29;3.53;;;2.30;;
14776;SDS011;7480;43.124;25.686;2022-09-09T13:15:57;2.63;;;2.20;;
14776;SDS011;7480;43.124;25.686;2022-09-09T13:18:35;2.60;;;1.92;;
14776;SDS011;7480;43.124;25.686;2022-09-09T13:21:02;7.47;;;2.53;;
14776;SDS011;7480;43.124;25.686;2022-09-09T13:23:30;2.53;;;1.92;;
14776;SDS011;7480;43.124;25.686;2022-09-09T13:26:01;1.95;;;1.83;;
14776;SDS011;7480;43.124;25.686;2022-09-09T13:28:29;3.53;;;2.13;;
14776;SDS011;7480;43.124;25.686;2022-09-09T13:31:03;2.72;;;2.20;;
14776;SDS011;7480;43.124;25.686;2022-09-09T13:33:34;2.70;;;2.10;;
14776;SDS011;7480;43.124;25.686;2022-09-09T13:38:37;2.80;;;2.60;;
14776;SDS011;7480;43.124;25.686;2022-09-09T13:41:05;3.58;;;2.33;;
14776;SDS011;7480;43.124;25.686;2022-09-09T13:43:37;4.28;;;2.10;;
14776;SDS011;7480;43.124;25.686;2022-09-09T13:46:06;3.22;;;2.17;;
14776;SDS011;7480;43.124;25.686;2022-09-09T13:48:57;5.85;;;2.20;;
14776;SDS011;7480;43.124;25.686;2022-09-09T13:51:32;2.58;;;2.33;;
14776;SDS011;7480;43.124;25.686;2022-09-09T13:54:00;2.45;;;2.20;;
14776;SDS011;7480;43.124;25.686;2022-09-09T13:56:27;2.47;;;2.10;;
14776;SDS011;7480;43.124;25.686;2022-09-09T13:58:53;4.65;;;2.25;;
14776;SDS011;7480;43.124;25.686;2022-09-09T14:01:20;2.25;;;1.98;;
14776;SDS011;7480;43.124;25.686;2022-09-09T14:03:50;2.90;;;2.45;;
14776;SDS011;7480;43.124;25.686;2022-09-09T14:06:17;3.17;;;2.42;;
14776;SDS011;7480;43.124;25.686;2022-09-09T14:08:45;4.00;;;2.70;;
14776;SDS011;7480;43.124;25.686;2022-09-09T14:11:12;3.85;;;3.05;;
14776;SDS011;7480;43.124;25.686;2022-09-09T14:13:39;3.33;;;2.70;;
14776;SDS011;7480;43.124;25.686;2022-09-09T14:16:07;3.65;;;2.60;;
14776;SDS011;7480;43.124;25.686;2022-09-09T14:18:34;2.53;;;2.33;;
14776;SDS011;7480;43.124;25.686;2022-09-09T14:21:00;2.83;;;2.38;;
14776;SDS011;7480;43.124;25.686;2022-09-09T14:23:28;6.85;;;2.22;;
14776;SDS011;7480;43.124;25.686;2022-09-09T14:25:55;2.25;;;2.05;;
14776;SDS011;7480;43.124;25.686;2022-09-09T14:28:22;1.85;;;1.73;;
14776;SDS011;7480;43.124;25.686;2022-09-09T14:31:08;4.45;;;2.40;;
14776;SDS011;7480;43.124;25.686;2022-09-09T14:33:36;2.67;;;2.47;;
14776;SDS011;7480;43.124;25.686;2022-09-09T14:36:03;3.33;;;2.53;;
14776;SDS011;7480;43.124;25.686;2022-09-09T14:38:30;2.90;;;2.25;;
14776;SDS011;7480;43.124;25.686;2022-09-09T14:40:57;3.63;;;2.88;;
14776;SDS011;7480;43.124;25.686;2022-09-09T14:43:24;2.80;;;2.03;;
14776;SDS011;7480;43.124;25.686;2022-09-09T14:45:52;2.78;;;2.33;;
14776;SDS011;7480;43.124;25.686;2022-09-09T14:48:18;2.55;;;2.35;;
14776;SDS011;7480;43.124;25.686;2022-09-09T14:50:45;2.42;;;2.05;;
14776;SDS011;7480;43.124;25.686;2022-09-09T14:53:11;4.18;;;2.30;;
14776;SDS011;7480;43.124;25.686;2022-09-09T14:55:38;2.65;;;2.35;;
14776;SDS011;7480;43.124;25.686;2022-09-09T14:58:05;3.47;;;2.63;;
14776;SDS011;7480;43.124;25.686;2022-09-09T15:00:32;4.43;;;2.50;;
14776;SDS011;7480;43.124;25.686;2022-09-09T15:02:58;3.38;;;2.30;;
14776;SDS011;7480;43.124;25.686;2022-09-09T15:05:25;3.30;;;2.33;;
14776;SDS011;7480;43.124;25.686;2022-09-09T15:08:00;3.03;;;2.45;;
14776;SDS011;7480;43.124;25.686;2022-09-09T15:10:27;4.43;;;2.50;;
14776;SDS011;7480;43.124;25.686;2022-09-09T15:12:53;5.22;;;3.17;;
14776;SDS011;7480;43.124;25.686;2022-09-09T15:15:20;5.60;;;2.92;;
14776;SDS011;7480;43.124;25.686;2022-09-09T15:17:47;3.22;;;2.92;;
14776;SDS011;7480;43.124;25.686;2022-09-09T15:20:13;5.90;;;3.33;;
14776;SDS011;7480;43.124;25.686;2022-09-09T15:22:41;3.95;;;3.08;;
14776;SDS011;7480;43.124;25.686;2022-09-09T15:25:07;3.67;;;3.33;;
14776;SDS011;7480;43.124;25.686;2022-09-09T15:27:34;3.35;;;3.03;;
14776;SDS011;7480;43.124;25.686;2022-09-09T15:30:00;3.40;;;3.10;;
14776;SDS011;7480;43.124;25.686;2022-09-09T15:32:27;4.15;;;3.33;;
14776;SDS011;7480;43.124;25.686;2022-09-09T15:34:53;6.35;;;3.33;;
14776;SDS011;7480;43.124;25.686;2022-09-09T15:37:20;6.32;;;3.38;;
14776;SDS011;7480;43.124;25.686;2022-09-09T15:39:46;5.82;;;3.55;;
14776;SDS011;7480;43.124;25.686;2022-09-09T15:42:14;5.43;;;2.80;;
14776;SDS011;7480;43.124;25.686;2022-09-09T15:44:41;7.32;;;3.50;;
14776;SDS011;7480;43.124;25.686;2022-09-09T15:47:10;4.25;;;3.05;;
14776;SDS011;7480;43.124;25.686;2022-09-09T15:49:36;4.13;;;3.35;;
14776;SDS011;7480;43.124;25.686;2022-09-09T15:52:03;4.57;;;3.00;;
14776;SDS011;7480;43.124;25.686;2022-09-09T15:54:35;3.95;;;3.28;;
14776;SDS011;7480;43.124;25.686;2022-09-09T15:57:05;4.72;;;2.95;;
14776;SDS011;7480;43.124;25.686;2022-09-09T15:59:31;7.43;;;4.32;;
14776;SDS011;7480;43.124;25.686;2022-09-09T16:01:59;5.53;;;3.95;;
14776;SDS011;7480;43.124;25.686;2022-09-09T16:04:27;6.25;;;3.22;;
14776;SDS011;7480;43.124;25.686;2022-09-09T16:06:59;3.13;;;2.85;;
14776;SDS011;7480;43.124;25.686;2022-09-09T16:09:26;5.97;;;3.70;;
14776;SDS011;7480;43.124;25.686;2022-09-09T16:11:55;5.03;;;3.67;;
14776;SDS011;7480;43.124;25.686;2022-09-09T16:14:22;3.88;;;3.28;;
14776;SDS011;7480;43.124;25.686;2022-09-09T16:16:49;3.38;;;3.00;;
14776;SDS011;7480;43.124;25.686;2022-09-09T16:19:15;5.05;;;3.45;;
14776;SDS011;7480;43.124;25.686;2022-09-09T16:21:43;8.73;;;3.72;;
14776;SDS011;7480;43.124;25.686;2022-09-09T16:24:10;4.40;;;3.45;;
14776;SDS011;7480;43.124;25.686;2022-09-09T16:26:38;6.75;;;3.40;;
14776;SDS011;7480;43.124;25.686;2022-09-09T16:29:05;3.20;;;2.70;;
14776;SDS011;7480;43.124;25.686;2022-09-09T16:31:32;4.30;;;3.58;;
14776;SDS011;7480;43.124;25.686;2022-09-09T16:33:59;4.38;;;3.22;;
14776;SDS011;7480;43.124;25.686;2022-09-09T16:36:26;7.65;;;3.28;;
14776;SDS011;7480;43.124;25.686;2022-09-09T16:38:54;8.07;;;3.75;;
14776;SDS011;7480;43.124;25.686;2022-09-09T16:41:24;7.50;;;3.22;;
14776;SDS011;7480;43.124;25.686;2022-09-09T16:46:20;4.25;;;3.42;;
14776;SDS011;7480;43.124;25.686;2022-09-09T16:48:48;4.15;;;3.70;;
14776;SDS011;7480;43.124;25.686;2022-09-09T16:51:19;7.53;;;4.57;;
14776;SDS011;7480;43.124;25.686;2022-09-09T16:53:46;6.15;;;3.92;;
14776;SDS011;7480;43.124;25.686;2022-09-09T16:56:13;6.22;;;4.13;;
14776;SDS011;7480;43.124;25.686;2022-09-09T16:58:40;4.72;;;3.63;;
14776;SDS011;7480;43.124;25.686;2022-09-09T17:01:09;4.60;;;4.03;;
14776;SDS011;7480;43.124;25.686;2022-09-09T17:03:37;7.72;;;3.78;;
14776;SDS011;7480;43.124;25.686;2022-09-09T17:06:08;7.57;;;4.65;;
14776;SDS011;7480;43.124;25.686;2022-09-09T17:08:34;5.28;;;3.53;;